createdAt,value
2023-04-14T00:02:08.461Z,4.70
2023-04-14T00:04:37.641Z,4.90
2023-04-14T00:07:06.494Z,5.00
2023-04-14T00:09:34.994Z,5.20
2023-04-14T00:12:03.530Z,5.20
2023-04-14T00:14:32.618Z,5.20
2023-04-14T00:17:01.632Z,5.10
2023-04-14T00:19:31.673Z,5.00
2023-04-14T00:22:00.398Z,4.90
2023-04-14T00:24:28.898Z,4.80
2023-04-14T00:26:57.406Z,4.70
2023-04-14T00:29:26.142Z,4.50
2023-04-14T00:31:54.607Z,4.20
2023-04-14T00:34:23.107Z,4.10
2023-04-14T00:36:53.034Z,4.10
2023-04-14T00:39:21.877Z,4.00
2023-04-14T00:41:50.365Z,4.10
2023-04-14T00:44:18.958Z,4.20
2023-04-14T00:46:47.707Z,4.20
2023-04-14T00:49:17.437Z,4.30
2023-04-14T00:51:48.204Z,4.30
2023-04-14T00:54:20.510Z,4.40
2023-04-14T00:56:50.878Z,4.50
2023-04-14T00:59:19.878Z,4.60
2023-04-14T01:01:48.437Z,4.70
2023-04-14T01:04:17.749Z,4.70
2023-04-14T01:06:46.525Z,4.90
2023-04-14T01:09:16.018Z,5.00
2023-04-14T01:11:55.546Z,5.10
2023-04-14T01:14:34.400Z,5.10
2023-04-14T01:17:10.626Z,5.00
2023-04-14T01:19:50.988Z,4.90
2023-04-14T01:22:21.813Z,4.70
2023-04-14T01:25:08.907Z,4.40
2023-04-14T01:27:45.707Z,4.20
2023-04-14T01:30:31.784Z,4.00
2023-04-14T01:33:05.777Z,3.90
2023-04-14T01:35:47.275Z,3.90
2023-04-14T01:38:25.327Z,3.70
2023-04-14T01:40:58.567Z,3.70
2023-04-14T01:43:30.147Z,3.60
2023-04-14T01:46:02.434Z,3.50
2023-04-14T01:48:33.663Z,3.40
2023-04-14T01:51:03.746Z,3.30
2023-04-14T01:53:34.090Z,3.30
2023-04-14T01:56:03.960Z,3.20
2023-04-14T01:58:33.828Z,3.20
2023-04-14T02:01:02.614Z,3.20
2023-04-14T02:03:33.966Z,3.20
2023-04-14T02:06:06.737Z,3.10
2023-04-14T02:08:38.827Z,3.20
2023-04-14T02:11:08.857Z,3.20
2023-04-14T02:13:39.405Z,3.20
2023-04-14T02:16:11.158Z,3.20
2023-04-14T02:18:42.713Z,3.20
2023-04-14T02:21:13.272Z,3.30
2023-04-14T02:23:41.774Z,3.50
2023-04-14T02:26:15.093Z,3.40
2023-04-14T02:28:50.914Z,3.40
2023-04-14T02:31:24.627Z,3.30
2023-04-14T02:33:57.910Z,3.30
2023-04-14T02:36:32.584Z,3.40
2023-04-14T02:39:05.593Z,3.40
2023-04-14T02:41:35.220Z,3.20
2023-04-14T02:44:12.174Z,3.10
2023-04-14T02:46:43.864Z,3.00
2023-04-14T02:49:16.228Z,2.90
2023-04-14T02:51:48.893Z,2.90
2023-04-14T02:54:18.526Z,2.80
2023-04-14T02:56:47.164Z,2.90
2023-04-14T02:59:15.887Z,3.10
2023-04-14T03:01:45.557Z,3.00
2023-04-14T03:04:16.784Z,2.90
2023-04-14T03:06:45.678Z,2.80
2023-04-14T03:09:14.517Z,2.90
2023-04-14T03:11:44.446Z,2.80
2023-04-14T03:14:13.412Z,2.80
2023-04-14T03:16:42.870Z,2.70
2023-04-14T03:19:12.775Z,2.70
2023-04-14T03:21:42.761Z,2.80
2023-04-14T03:24:14.515Z,2.80
2023-04-14T03:26:44.766Z,2.90
2023-04-14T03:29:15.544Z,2.90
2023-04-14T03:31:45.060Z,2.90
2023-04-14T03:34:16.156Z,2.90
2023-04-14T03:36:47.185Z,2.90
2023-04-14T03:39:18.073Z,2.90
2023-04-14T03:41:49.556Z,2.80
2023-04-14T03:44:19.971Z,2.80
2023-04-14T03:46:49.413Z,2.80
2023-04-14T03:49:21.043Z,2.80
2023-04-14T03:51:53.716Z,2.70
2023-04-14T03:54:24.684Z,2.70
2023-04-14T03:56:56.935Z,2.60
2023-04-14T03:59:29.145Z,2.60
2023-04-14T04:01:58.441Z,2.50
2023-04-14T04:04:28.164Z,2.50
2023-04-14T04:06:58.985Z,2.50
2023-04-14T04:09:29.978Z,2.60
2023-04-14T04:12:00.224Z,2.70
2023-04-14T04:14:31.297Z,2.90
2023-04-14T04:17:04.172Z,2.90
2023-04-14T04:19:33.813Z,3.00
2023-04-14T04:22:04.837Z,2.90
2023-04-14T04:24:38.135Z,2.80
2023-04-14T04:27:09.976Z,2.70
2023-04-14T04:29:45.856Z,2.60
2023-04-14T04:32:14.478Z,2.60
2023-04-14T04:34:43.405Z,2.50
2023-04-14T04:37:13.964Z,2.30
2023-04-14T04:39:42.486Z,2.20
2023-04-14T04:42:11.113Z,2.10
2023-04-14T04:44:39.670Z,2.00
2023-04-14T04:47:08.746Z,2.00
2023-04-14T04:49:37.204Z,1.90
2023-04-14T04:52:05.916Z,1.80
2023-04-14T04:54:35.916Z,1.70
2023-04-14T04:57:04.357Z,1.70
2023-04-14T04:59:33.178Z,1.70
2023-04-14T05:02:01.887Z,1.90
2023-04-14T05:04:30.555Z,2.10
2023-04-14T05:06:59.186Z,2.30
2023-04-14T05:09:27.696Z,2.40
2023-04-14T05:11:58.255Z,2.50
2023-04-14T05:14:27.752Z,2.60
2023-04-14T05:16:57.130Z,2.70
2023-04-14T05:19:25.817Z,2.60
2023-04-14T05:21:55.823Z,2.60
2023-04-14T05:24:24.477Z,2.70
2023-04-14T05:27:12.440Z,2.70
2023-04-14T05:29:42.804Z,2.70
2023-04-14T05:32:11.679Z,2.70
2023-04-14T05:34:40.158Z,2.80
2023-04-14T05:37:09.079Z,3.00
2023-04-14T05:39:37.784Z,3.20
2023-04-14T05:42:06.475Z,3.30
2023-04-14T05:44:35.005Z,3.40
2023-04-14T05:47:05.079Z,3.50
2023-04-14T05:49:33.668Z,3.50
2023-04-14T05:52:02.222Z,3.50
2023-04-14T05:54:30.730Z,3.40
2023-04-14T05:56:59.254Z,3.40
2023-04-14T05:59:28.129Z,3.30
2023-04-14T06:01:56.777Z,3.50
2023-04-14T06:04:26.794Z,3.60
2023-04-14T06:06:55.334Z,3.80
2023-04-14T06:09:23.797Z,4.00
2023-04-14T06:11:52.289Z,4.10
2023-04-14T06:14:21.207Z,4.20
2023-04-14T06:16:51.049Z,4.30
2023-04-14T06:19:20.034Z,4.50
2023-04-14T06:21:49.988Z,4.50
2023-04-14T06:24:18.768Z,4.60
2023-04-14T06:26:47.615Z,4.80
2023-04-14T06:29:16.298Z,4.90
2023-04-14T06:31:44.845Z,5.20
2023-04-14T06:34:13.286Z,5.30
2023-04-14T06:36:41.872Z,5.40
2023-04-14T06:39:12.459Z,5.40
2023-04-14T06:41:41.005Z,5.50
2023-04-14T06:44:09.521Z,5.60
2023-04-14T06:46:38.638Z,5.60
2023-04-14T06:49:07.888Z,5.60
2023-04-14T06:51:36.519Z,5.70
2023-04-14T06:54:05.404Z,5.80
2023-04-14T06:56:35.262Z,5.90
2023-04-14T06:59:03.908Z,6.00
2023-04-14T07:01:32.455Z,6.10
2023-04-14T07:04:01.130Z,6.20
2023-04-14T07:06:29.806Z,6.40
2023-04-14T07:08:58.266Z,6.50
2023-04-14T07:11:26.725Z,6.70
2023-04-14T07:13:56.690Z,6.90
2023-04-14T07:16:25.202Z,7.10
2023-04-14T07:18:53.634Z,7.30
2023-04-14T07:21:22.353Z,7.50
2023-04-14T07:23:50.779Z,7.60
2023-04-14T07:26:19.520Z,7.80
2023-04-14T07:28:47.966Z,8.00
2023-04-14T07:31:17.806Z,8.10
2023-04-14T07:33:46.345Z,8.30
2023-04-14T07:36:14.834Z,8.50
2023-04-14T07:38:43.913Z,8.70
2023-04-14T07:41:12.368Z,9.00
2023-04-14T07:43:50.349Z,9.20
2023-04-14T07:46:25.560Z,9.50
2023-04-14T07:48:54.473Z,10.00
2023-04-14T07:51:22.875Z,10.20
2023-04-14T07:53:53.208Z,10.30
2023-04-14T07:56:22.548Z,10.60
2023-04-14T07:58:51.024Z,11.00
2023-04-14T08:01:21.212Z,11.40
2023-04-14T08:03:49.892Z,11.90
2023-04-14T08:06:18.684Z,12.50
2023-04-14T08:08:47.885Z,13.50
2023-04-14T08:11:16.367Z,14.30
2023-04-14T08:13:45.026Z,15.00
2023-04-14T08:16:13.729Z,16.40
2023-04-14T08:18:43.671Z,17.30
2023-04-14T08:21:12.226Z,18.40
2023-04-14T08:23:41.023Z,19.40
2023-04-14T08:26:09.524Z,20.10
2023-04-14T08:28:37.985Z,20.50
2023-04-14T08:31:06.629Z,21.20
2023-04-14T08:33:35.140Z,22.20
2023-04-14T08:36:05.684Z,22.60
2023-04-14T08:38:34.200Z,23.00
2023-04-14T08:41:05.604Z,23.30
2023-04-14T08:43:34.083Z,23.50
2023-04-14T08:46:03.312Z,23.50
2023-04-14T08:48:33.172Z,23.50
2023-04-14T08:51:08.301Z,23.70
2023-04-14T08:53:43.058Z,23.80
2023-04-14T08:56:13.914Z,23.80
2023-04-14T08:58:43.234Z,24.10
2023-04-14T09:01:12.367Z,24.50
2023-04-14T09:03:42.209Z,24.60
2023-04-14T09:06:13.524Z,25.00
2023-04-14T09:08:42.080Z,25.20
2023-04-14T09:11:11.785Z,25.40
2023-04-14T09:13:42.104Z,25.50
2023-04-14T09:16:11.354Z,25.10
2023-04-14T09:18:40.444Z,24.80
2023-04-14T09:21:49.919Z,24.50
2023-04-14T09:24:00.536Z,25.10
2023-04-14T09:26:30.293Z,25.90
2023-04-14T09:28:59.106Z,26.40
2023-04-14T09:31:28.821Z,26.50
2023-04-14T09:33:58.329Z,26.30
2023-04-14T09:36:29.272Z,26.50
2023-04-14T09:38:57.843Z,26.60
2023-04-14T09:41:27.707Z,26.00
2023-04-14T09:43:56.273Z,26.20
2023-04-14T09:46:24.913Z,26.00
2023-04-14T09:48:55.326Z,26.00
2023-04-14T09:51:28.089Z,26.30
2023-04-14T09:54:03.847Z,26.20
2023-04-14T09:56:32.892Z,26.10
2023-04-14T09:59:03.683Z,25.90
2023-04-14T10:01:34.971Z,25.90
2023-04-14T10:04:04.338Z,25.70
2023-04-14T10:06:32.860Z,25.50
2023-04-14T10:09:04.192Z,25.40
2023-04-14T10:11:33.630Z,25.30
2023-04-14T10:14:04.964Z,24.70
2023-04-14T10:16:34.338Z,24.30
2023-04-14T10:19:03.707Z,24.10
2023-04-14T10:21:32.775Z,24.40
2023-04-14T10:24:03.352Z,24.70
2023-04-14T10:26:31.881Z,24.30
2023-04-14T10:29:02.717Z,24.50
2023-04-14T10:31:38.990Z,25.10
2023-04-14T10:34:11.157Z,25.50
2023-04-14T10:36:40.061Z,25.80
2023-04-14T10:39:12.418Z,26.90
2023-04-14T10:41:48.692Z,27.30
2023-04-14T10:44:29.614Z,27.90
2023-04-14T10:46:58.841Z,28.50
2023-04-14T10:49:32.977Z,28.30
2023-04-14T10:52:03.986Z,28.60
2023-04-14T10:54:53.522Z,29.40
2023-04-14T10:57:24.410Z,29.60
2023-04-14T10:59:57.908Z,30.50
2023-04-14T11:02:28.748Z,30.90
2023-04-14T11:05:06.172Z,30.60
2023-04-14T11:07:40.768Z,29.10
2023-04-14T11:10:32.777Z,28.30
2023-04-14T11:13:05.655Z,28.00
2023-04-14T11:15:52.215Z,27.50
2023-04-14T11:18:33.235Z,27.20
2023-04-14T11:21:06.715Z,27.00
2023-04-14T11:23:36.487Z,27.40
2023-04-14T11:26:09.682Z,27.10
2023-04-14T11:28:39.804Z,27.20
2023-04-14T11:31:10.015Z,26.80
2023-04-14T11:33:39.936Z,26.30
2023-04-14T11:36:10.064Z,26.20
2023-04-14T11:38:40.819Z,26.00
2023-04-14T11:41:11.432Z,25.80
2023-04-14T11:43:46.557Z,25.60
2023-04-14T11:46:15.727Z,25.10
2023-04-14T11:48:44.474Z,24.70
2023-04-14T11:51:13.023Z,24.30
2023-04-14T11:53:43.339Z,23.70
2023-04-14T11:56:14.536Z,23.80
2023-04-14T11:58:43.185Z,24.30
2023-04-14T12:01:14.894Z,24.10
2023-04-14T12:03:43.767Z,24.50
2023-04-14T12:06:12.321Z,25.00
2023-04-14T12:08:40.778Z,25.40
2023-04-14T12:11:17.604Z,25.70
2023-04-14T12:13:47.681Z,25.70
2023-04-14T12:16:18.039Z,25.80
2023-04-14T12:18:46.838Z,25.90
2023-04-14T12:21:19.764Z,25.70
2023-04-14T12:23:49.944Z,25.10
2023-04-14T12:26:22.190Z,25.50
2023-04-14T12:28:57.774Z,25.70
2023-04-14T12:31:31.246Z,25.30
2023-04-14T12:34:04.138Z,24.80
2023-04-14T12:36:48.681Z,24.00
2023-04-14T12:39:18.571Z,23.40
2023-04-14T12:41:48.946Z,23.10
2023-04-14T12:44:18.658Z,23.60
2023-04-14T12:46:50.044Z,24.20
2023-04-14T12:49:34.706Z,24.30
2023-04-14T12:52:03.338Z,24.20
2023-04-14T12:54:47.488Z,24.20
2023-04-14T12:57:17.462Z,25.10
2023-04-14T12:59:46.076Z,25.60
2023-04-14T13:02:15.515Z,25.70
2023-04-14T13:04:44.649Z,26.00
2023-04-14T13:07:13.160Z,26.60
2023-04-14T13:09:42.705Z,26.70
2023-04-14T13:12:11.503Z,26.00
2023-04-14T13:14:41.495Z,25.80
2023-04-14T13:17:10.730Z,26.00
2023-04-14T13:19:40.131Z,25.70
2023-04-14T13:22:08.586Z,25.10
2023-04-14T13:24:37.480Z,25.00
2023-04-14T13:27:06.970Z,24.80
2023-04-14T13:29:36.154Z,24.00
2023-04-14T13:32:11.266Z,23.60
2023-04-14T13:34:40.608Z,23.30
2023-04-14T13:37:09.084Z,23.00
2023-04-14T13:39:37.682Z,22.60
2023-04-14T13:42:06.130Z,22.30
2023-04-14T13:44:35.342Z,22.30
2023-04-14T13:47:05.197Z,22.10
2023-04-14T13:49:33.609Z,22.00
2023-04-14T13:52:02.137Z,22.10
2023-04-14T13:54:30.598Z,22.30
2023-04-14T13:56:59.021Z,22.40
2023-04-14T13:59:27.617Z,22.60
2023-04-14T14:01:56.378Z,23.30
2023-04-14T14:04:26.498Z,23.40
2023-04-14T14:06:55.011Z,23.60
2023-04-14T14:09:24.591Z,23.80
2023-04-14T14:11:53.016Z,23.80
2023-04-14T14:14:22.677Z,23.50
2023-04-14T14:16:51.180Z,23.20
2023-04-14T14:19:20.653Z,23.00
2023-04-14T14:21:50.548Z,23.00
2023-04-14T14:24:19.239Z,23.10
2023-04-14T14:26:47.678Z,23.00
2023-04-14T14:29:16.238Z,22.50
2023-04-14T14:31:44.735Z,22.30
2023-04-14T14:34:13.429Z,22.50
2023-04-14T14:36:42.327Z,22.70
2023-04-14T14:39:12.672Z,23.00
2023-04-14T14:41:41.291Z,22.90
2023-04-14T14:44:09.805Z,22.70
2023-04-14T14:46:38.426Z,22.70
2023-04-14T14:49:06.905Z,22.90
2023-04-14T14:51:36.241Z,22.60
2023-04-14T14:54:09.869Z,22.30
2023-04-14T14:56:40.388Z,22.20
2023-04-14T14:59:09.749Z,22.50
2023-04-14T15:01:38.434Z,22.80
2023-04-14T15:04:07.783Z,23.10
2023-04-14T15:06:37.535Z,23.30
2023-04-14T15:09:06.700Z,23.30
2023-04-14T15:11:35.310Z,23.00
2023-04-14T15:14:05.369Z,22.50
2023-04-14T15:16:34.079Z,21.80
2023-04-14T15:19:03.653Z,21.50
2023-04-14T15:21:32.854Z,21.80
2023-04-14T15:24:01.880Z,22.00
2023-04-14T15:26:30.512Z,22.00
2023-04-14T15:28:58.989Z,21.40
2023-04-14T15:31:29.251Z,20.60
2023-04-14T15:34:00.106Z,20.10
2023-04-14T15:36:28.842Z,20.10
2023-04-14T15:38:57.734Z,20.00
2023-04-14T15:41:26.588Z,19.90
2023-04-14T15:43:55.120Z,20.00
2023-04-14T15:46:23.976Z,20.00
2023-04-14T15:48:53.956Z,19.80
2023-04-14T15:51:22.690Z,19.30
2023-04-14T15:53:52.645Z,18.70
2023-04-14T15:56:23.605Z,18.30
2023-04-14T15:58:52.423Z,18.30
2023-04-14T16:01:21.416Z,18.20
2023-04-14T16:03:52.445Z,18.40
2023-04-14T16:06:23.342Z,18.60
2023-04-14T16:08:52.119Z,18.40
2023-04-14T16:11:20.842Z,18.40
2023-04-14T16:13:49.391Z,18.40
2023-04-14T16:16:18.490Z,18.30
2023-04-14T16:18:46.981Z,18.20
2023-04-14T16:21:15.880Z,17.90
2023-04-14T16:23:45.853Z,17.70
2023-04-14T16:26:14.378Z,17.60
2023-04-14T16:28:42.859Z,17.30
2023-04-14T16:31:11.587Z,17.00
2023-04-14T16:33:40.275Z,16.90
2023-04-14T16:36:09.092Z,16.80
2023-04-14T16:38:37.688Z,16.70
2023-04-14T16:41:07.918Z,16.60
2023-04-14T16:43:36.610Z,16.50
2023-04-14T16:46:05.874Z,16.50
2023-04-14T16:48:35.178Z,16.20
2023-04-14T16:51:05.901Z,16.10
2023-04-14T16:53:34.902Z,15.70
2023-04-14T16:56:08.932Z,15.70
2023-04-14T16:58:39.069Z,15.60
2023-04-14T17:01:09.712Z,15.60
2023-04-14T17:03:38.578Z,15.70
2023-04-14T17:06:07.475Z,15.80
2023-04-14T17:08:36.520Z,16.00
2023-04-14T17:11:05.124Z,15.90
2023-04-14T17:13:35.068Z,15.60
2023-04-14T17:16:08.783Z,15.30
2023-04-14T17:18:37.910Z,15.10
2023-04-14T17:21:07.754Z,14.80
2023-04-14T17:23:38.014Z,14.70
2023-04-14T17:26:07.008Z,14.60
2023-04-14T17:28:38.701Z,14.60
2023-04-14T17:31:13.441Z,14.60
2023-04-14T17:33:42.460Z,14.50
2023-04-14T17:36:12.781Z,14.40
2023-04-14T17:38:42.034Z,14.40
2023-04-14T17:41:12.607Z,14.40
2023-04-14T17:43:43.040Z,14.40
2023-04-14T17:46:12.018Z,14.20
2023-04-14T17:48:40.558Z,14.10
2023-04-14T17:51:09.239Z,14.00
2023-04-14T17:53:37.918Z,13.90
2023-04-14T17:56:07.284Z,13.80
2023-04-14T17:58:35.901Z,13.70
2023-04-14T18:01:06.423Z,13.60
2023-04-14T18:03:35.294Z,13.50
2023-04-14T18:06:03.994Z,13.50
2023-04-14T18:08:32.495Z,13.30
2023-04-14T18:11:01.004Z,13.20
2023-04-14T18:13:29.962Z,13.10
2023-04-14T18:15:58.508Z,13.00
2023-04-14T18:18:28.662Z,12.90
2023-04-14T18:20:57.459Z,12.80
2023-04-14T18:23:26.173Z,12.70
2023-04-14T18:28:32.893Z,12.40
2023-04-14T18:31:01.775Z,12.30
2023-04-14T18:33:32.020Z,12.30
2023-04-14T18:36:01.499Z,12.20
2023-04-14T18:38:29.992Z,12.10
2023-04-14T18:41:03.717Z,12.00
2023-04-14T18:43:32.742Z,11.90
2023-04-14T18:46:01.450Z,11.80
2023-04-14T18:48:31.981Z,11.70
2023-04-14T18:51:02.566Z,11.60
2023-04-14T18:53:31.987Z,11.50
2023-04-14T18:56:00.705Z,11.40
2023-04-14T18:58:30.481Z,11.30
2023-04-14T19:00:59.205Z,11.30
2023-04-14T19:03:28.671Z,11.20
2023-04-14T19:05:58.812Z,11.10
2023-04-14T19:08:27.430Z,11.20
2023-04-14T19:10:56.079Z,11.10
2023-04-14T19:13:24.657Z,11.00
2023-04-14T19:15:53.268Z,11.00
2023-04-14T19:18:22.042Z,10.90
2023-04-14T19:20:50.522Z,10.80
2023-04-14T19:23:21.451Z,10.80
2023-04-14T19:25:50.681Z,10.70
2023-04-14T19:28:19.269Z,10.60
2023-04-14T19:30:47.937Z,10.70
2023-04-14T19:33:16.883Z,10.60
2023-04-14T19:35:45.408Z,10.70
2023-04-14T19:38:14.771Z,10.70
2023-04-14T19:40:49.842Z,10.60
2023-04-14T19:43:18.704Z,10.60
2023-04-14T19:45:54.651Z,10.60
2023-04-14T19:48:24.497Z,10.50
2023-04-14T19:50:54.848Z,10.50
2023-04-14T19:53:24.496Z,10.60
2023-04-14T19:55:55.969Z,10.50
2023-04-14T19:58:26.245Z,10.40
2023-04-14T20:00:58.043Z,10.40
2023-04-14T20:03:27.519Z,10.40
2023-04-14T20:05:57.812Z,10.30
2023-04-14T20:08:27.844Z,10.30
2023-04-14T20:10:58.124Z,10.30
2023-04-14T20:13:30.665Z,10.30
2023-04-14T20:15:59.274Z,10.40
2023-04-14T20:18:29.013Z,10.50
2023-04-14T20:20:57.651Z,10.40
2023-04-14T20:23:26.725Z,10.40
2023-04-14T20:25:56.070Z,10.40
2023-04-14T20:28:26.966Z,10.40
2023-04-14T20:30:56.362Z,10.40
2023-04-14T20:33:25.072Z,10.40
2023-04-14T20:35:54.675Z,10.20
2023-04-14T20:38:23.843Z,10.20
2023-04-14T20:40:52.917Z,10.20
2023-04-14T20:43:21.912Z,10.20
2023-04-14T20:45:53.396Z,10.30
2023-04-14T20:48:22.097Z,10.30
2023-04-14T20:50:51.151Z,10.20
2023-04-14T20:53:22.747Z,10.10
2023-04-14T20:55:52.150Z,10.10
2023-04-14T20:58:21.353Z,10.00
2023-04-14T21:00:51.506Z,9.90
2023-04-14T21:03:20.429Z,9.90
2023-04-14T21:05:49.105Z,9.90
2023-04-14T21:08:17.625Z,9.90
2023-04-14T21:11:15.163Z,9.90
2023-04-14T21:15:24.948Z,9.90
2023-04-14T21:16:26.112Z,9.90
2023-04-14T21:18:54.673Z,9.90
2023-04-14T21:21:23.301Z,10.00
2023-04-14T21:23:51.747Z,9.90
2023-04-14T21:26:20.663Z,9.90
2023-04-14T21:28:50.075Z,9.80
2023-04-14T21:31:19.636Z,9.70
2023-04-14T21:33:51.215Z,9.80
2023-04-14T21:36:20.939Z,9.70
2023-04-14T21:38:50.428Z,9.70
2023-04-14T21:41:20.615Z,9.60
2023-04-14T21:43:50.033Z,9.70
2023-04-14T21:46:19.796Z,9.70
2023-04-14T21:48:50.935Z,9.60
2023-04-14T21:51:21.736Z,9.70
2023-04-14T21:53:51.258Z,9.70
2023-04-14T21:56:21.097Z,9.70
2023-04-14T21:58:50.454Z,9.70
2023-04-14T22:01:20.580Z,9.60
2023-04-14T22:04:35.355Z,9.60
2023-04-14T22:10:29.898Z,9.50
2023-04-14T22:16:24.131Z,9.60
2023-04-14T22:22:21.532Z,9.70
2023-04-14T22:25:11.862Z,9.70
2023-04-14T22:27:59.969Z,9.70
2023-04-14T22:30:47.584Z,9.70
2023-04-14T22:33:34.777Z,9.80
2023-04-14T22:39:31.657Z,9.80
2023-04-14T22:42:20.253Z,9.80
2023-04-14T22:45:01.015Z,9.70
2023-04-14T22:47:44.390Z,9.70
2023-04-14T22:50:29.658Z,9.70
2023-04-14T22:53:27.289Z,9.80
2023-04-14T22:56:09.968Z,9.80
2023-04-14T23:02:06.997Z,9.90
2023-04-14T23:04:52.367Z,9.90
2023-04-14T23:07:35.730Z,10.00
2023-04-14T23:10:28.006Z,10.00
2023-04-14T23:13:13.367Z,10.00
2023-04-14T23:16:02.390Z,10.00
2023-04-14T23:18:50.255Z,10.10
2023-04-14T23:21:54.411Z,10.00
2023-04-14T23:24:39.140Z,10.10
2023-04-14T23:27:25.892Z,10.00
2023-04-14T23:29:55.691Z,9.90
2023-04-14T23:32:32.207Z,9.80
2023-04-14T23:35:05.580Z,9.80
2023-04-14T23:41:42.259Z,9.70
2023-04-14T23:48:03.252Z,9.80
2023-04-14T23:54:13.971Z,9.80
2023-04-14T23:57:17.095Z,9.80
